createdAt,value
2018-08-20T00:01:33.244Z,69.40
2018-08-20T00:04:02.629Z,69.80
2018-08-20T00:06:42.323Z,69.70
2018-08-20T00:09:10.698Z,69.90
2018-08-20T00:11:39.176Z,70.10
2018-08-20T00:14:07.567Z,70.60
2018-08-20T00:16:35.969Z,70.10
2018-08-20T00:19:04.420Z,70.20
2018-08-20T00:21:32.872Z,70.30
2018-08-20T00:24:02.203Z,71.00
2018-08-20T00:26:30.644Z,71.20
2018-08-20T00:28:59.143Z,71.30
2018-08-20T00:31:27.595Z,71.80
2018-08-20T00:33:55.959Z,72.50
2018-08-20T00:36:24.490Z,71.50
2018-08-20T00:38:53.680Z,71.60
2018-08-20T00:41:22.157Z,72.10
2018-08-20T00:43:51.190Z,71.80
2018-08-20T00:46:19.839Z,71.90
2018-08-20T00:48:48.548Z,71.80
2018-08-20T00:51:17.656Z,71.80
2018-08-20T00:53:46.567Z,72.00
2018-08-20T00:56:15.955Z,72.10
2018-08-20T00:58:45.820Z,72.50
2018-08-20T01:01:14.845Z,73.00
2018-08-20T01:03:43.861Z,73.70
2018-08-20T01:06:12.252Z,73.80
2018-08-20T01:08:41.622Z,73.80
2018-08-20T01:11:10.939Z,73.70
2018-08-20T01:13:40.321Z,74.80
2018-08-20T01:16:08.819Z,75.20
2018-08-20T01:18:39.017Z,75.20
2018-08-20T01:21:08.565Z,75.00
2018-08-20T01:23:37.921Z,75.10
2018-08-20T01:26:06.343Z,75.80
2018-08-20T01:28:34.774Z,76.40
2018-08-20T01:31:03.316Z,76.60
2018-08-20T01:33:31.736Z,77.20
2018-08-20T01:36:01.258Z,77.20
2018-08-20T01:38:30.622Z,77.50
2018-08-20T01:41:00.216Z,77.70
2018-08-20T01:43:29.365Z,77.90
2018-08-20T01:46:00.182Z,77.80
2018-08-20T01:48:31.537Z,78.10
2018-08-20T01:51:01.119Z,78.30
2018-08-20T01:53:29.444Z,78.30
2018-08-20T01:55:57.899Z,78.50
2018-08-20T01:58:26.267Z,78.60
2018-08-20T02:00:54.669Z,78.80
2018-08-20T02:03:24.057Z,79.60
2018-08-20T02:05:52.808Z,78.60
2018-08-20T02:08:21.280Z,76.60
2018-08-20T02:10:49.769Z,76.40
2018-08-20T02:13:18.298Z,76.80
2018-08-20T02:15:46.696Z,77.20
2018-08-20T02:18:15.692Z,77.90
2018-08-20T02:20:44.500Z,77.80
2018-08-20T02:23:14.386Z,78.00
2018-08-20T02:25:42.899Z,77.10
2018-08-20T02:28:11.349Z,76.60
2018-08-20T02:30:39.829Z,77.20
2018-08-20T02:33:08.413Z,77.50
2018-08-20T02:35:37.493Z,78.50
2018-08-20T02:38:06.865Z,78.90
2018-08-20T02:40:35.573Z,79.70
2018-08-20T02:43:04.016Z,80.10
2018-08-20T02:45:32.571Z,79.90
2018-08-20T02:48:00.977Z,80.40
2018-08-20T02:50:29.362Z,80.50
2018-08-20T02:57:56.365Z,81.10
2018-08-20T03:00:24.759Z,81.20
2018-08-20T03:02:53.310Z,81.20
2018-08-20T03:05:21.740Z,81.20
2018-08-20T03:07:50.453Z,79.70
2018-08-20T03:10:18.887Z,78.60
2018-08-20T03:12:47.307Z,79.00
2018-08-20T03:15:15.724Z,78.90
2018-08-20T03:17:44.157Z,79.40
2018-08-20T03:20:12.667Z,79.40
2018-08-20T03:22:41.953Z,79.30
2018-08-20T03:25:10.490Z,79.90
2018-08-20T03:27:39.159Z,80.40
2018-08-20T03:30:14.222Z,80.60
2018-08-20T03:32:43.241Z,80.80
2018-08-20T03:35:12.349Z,80.90
2018-08-20T03:37:41.729Z,81.20
2018-08-20T03:40:12.002Z,81.30
2018-08-20T03:42:40.774Z,82.20
2018-08-20T03:45:10.013Z,82.80
2018-08-20T03:47:39.352Z,82.90
2018-08-20T03:50:10.591Z,82.70
2018-08-20T03:52:39.957Z,82.60
2018-08-20T03:55:08.397Z,82.90
2018-08-20T03:57:37.311Z,82.30
2018-08-20T04:00:07.694Z,83.00
2018-08-20T04:02:36.969Z,82.30
2018-08-20T04:05:06.910Z,81.90
2018-08-20T04:07:35.886Z,82.70
2018-08-20T04:10:04.600Z,83.40
2018-08-20T04:12:33.444Z,82.00
2018-08-20T04:15:02.517Z,81.30
2018-08-20T04:17:33.118Z,81.00
2018-08-20T04:20:04.605Z,80.50
2018-08-20T04:22:35.024Z,80.70
2018-08-20T04:25:08.100Z,81.10
2018-08-20T04:27:37.925Z,81.40
2018-08-20T04:30:06.596Z,81.60
2018-08-20T04:32:35.296Z,81.50
2018-08-20T04:35:04.780Z,81.30
2018-08-20T04:37:33.850Z,80.90
2018-08-20T04:40:02.532Z,80.80
2018-08-20T04:42:31.931Z,80.70
2018-08-20T04:45:01.287Z,81.10
2018-08-20T04:47:30.758Z,81.20
2018-08-20T04:50:00.910Z,81.30
2018-08-20T04:52:30.514Z,81.50
2018-08-20T04:55:00.484Z,81.60
2018-08-20T04:57:33.205Z,81.70
2018-08-20T05:00:03.185Z,81.90
2018-08-20T05:02:34.764Z,81.80
2018-08-20T05:05:05.065Z,82.00
2018-08-20T05:07:33.862Z,82.20
2018-08-20T05:10:02.974Z,82.20
2018-08-20T05:12:31.389Z,82.10
2018-08-20T05:14:59.870Z,82.10
2018-08-20T05:17:28.649Z,82.50
2018-08-20T05:19:57.641Z,82.40
2018-08-20T05:22:26.291Z,82.60
2018-08-20T05:24:54.817Z,82.10
2018-08-20T05:27:23.227Z,81.80
2018-08-20T05:29:51.873Z,81.70
2018-08-20T05:32:20.885Z,81.40
2018-08-20T05:34:49.544Z,81.60
2018-08-20T05:37:23.441Z,81.60
2018-08-20T05:39:53.241Z,81.20
2018-08-20T05:42:21.687Z,80.30
2018-08-20T05:44:50.150Z,80.70
2018-08-20T05:47:18.509Z,80.20
2018-08-20T05:49:47.530Z,79.70
2018-08-20T05:52:16.016Z,79.60
2018-08-20T05:54:44.399Z,80.20
2018-08-20T05:57:13.455Z,79.90
2018-08-20T05:59:41.869Z,80.00
2018-08-20T06:02:10.397Z,79.80
2018-08-20T06:04:39.000Z,79.60
2018-08-20T06:12:02.060Z,78.60
2018-08-20T06:14:30.430Z,78.60
2018-08-20T06:16:58.921Z,78.10
2018-08-20T06:19:27.414Z,77.70
2018-08-20T06:21:55.830Z,77.20
2018-08-20T06:24:24.336Z,76.80
2018-08-20T06:26:52.746Z,75.80
2018-08-20T06:29:21.245Z,75.50
2018-08-20T06:31:49.662Z,75.10
2018-08-20T06:34:18.063Z,74.30
2018-08-20T06:36:46.920Z,74.20
2018-08-20T06:39:15.336Z,74.20
2018-08-20T06:41:43.881Z,73.80
2018-08-20T06:44:12.301Z,73.20
2018-08-20T06:46:40.773Z,73.30
2018-08-20T06:49:10.024Z,73.20
2018-08-20T06:51:38.690Z,73.20
2018-08-20T06:54:07.490Z,73.30
2018-08-20T06:56:35.908Z,73.20
2018-08-20T06:59:04.484Z,72.50
2018-08-20T07:01:32.836Z,72.90
2018-08-20T07:04:01.218Z,72.80
2018-08-20T07:06:29.776Z,72.80
2018-08-20T07:08:58.148Z,72.00
2018-08-20T07:11:26.649Z,72.10
2018-08-20T07:13:55.048Z,72.10
2018-08-20T07:16:23.489Z,71.70
2018-08-20T07:18:52.170Z,71.50
2018-08-20T07:21:20.596Z,71.70
2018-08-20T07:23:49.134Z,71.50
2018-08-20T07:26:17.494Z,71.30
2018-08-20T07:28:45.853Z,71.20
2018-08-20T07:31:14.340Z,71.30
2018-08-20T07:33:42.775Z,71.50
2018-08-20T07:36:11.266Z,71.20
2018-08-20T07:38:39.649Z,71.50
2018-08-20T07:41:08.158Z,70.70
2018-08-20T07:43:36.593Z,70.80
2018-08-20T07:46:05.020Z,69.70
2018-08-20T07:48:33.511Z,69.10
2018-08-20T07:51:01.946Z,69.00
2018-08-20T07:53:30.459Z,68.50
2018-08-20T07:55:58.984Z,69.00
2018-08-20T07:58:27.680Z,68.70
2018-08-20T08:00:56.213Z,68.90
2018-08-20T08:03:24.852Z,67.60
2018-08-20T08:05:53.252Z,67.50
2018-08-20T08:08:21.672Z,67.40
2018-08-20T08:10:50.093Z,67.10
2018-08-20T08:13:18.574Z,67.30
2018-08-20T08:15:47.080Z,66.60
2018-08-20T08:18:15.461Z,66.10
2018-08-20T08:20:43.912Z,66.10
2018-08-20T08:23:12.300Z,66.20
2018-08-20T08:25:40.704Z,66.10
2018-08-20T08:28:09.180Z,66.20
2018-08-20T08:30:37.627Z,66.40
2018-08-20T08:33:06.317Z,66.70
2018-08-20T08:35:34.831Z,65.90
2018-08-20T08:38:03.307Z,66.00
2018-08-20T08:40:31.748Z,66.30
2018-08-20T08:43:00.128Z,66.50
2018-08-20T08:45:28.604Z,67.10
2018-08-20T08:47:57.068Z,66.50
2018-08-20T08:50:25.478Z,67.10
2018-08-20T08:52:53.822Z,66.90
2018-08-20T08:55:22.284Z,66.80
2018-08-20T08:57:50.749Z,66.80
2018-08-20T09:00:20.670Z,67.10
2018-08-20T09:02:49.130Z,67.40
2018-08-20T09:05:17.641Z,67.80
2018-08-20T09:07:46.091Z,66.70
2018-08-20T09:10:14.485Z,65.90
2018-08-20T09:12:43.007Z,64.80
2018-08-20T09:15:15.719Z,64.60
2018-08-20T09:17:44.301Z,63.80
2018-08-20T09:20:14.572Z,62.80
2018-08-20T09:22:43.340Z,62.80
2018-08-20T09:25:12.650Z,63.50
2018-08-20T09:27:42.651Z,63.80
2018-08-20T09:30:22.413Z,63.20
2018-08-20T09:32:50.902Z,62.40
2018-08-20T09:35:19.369Z,62.10
2018-08-20T09:37:47.753Z,62.00
2018-08-20T09:40:16.221Z,62.50
2018-08-20T09:42:44.909Z,63.80
2018-08-20T09:45:13.423Z,64.00
2018-08-20T09:47:42.585Z,64.90
2018-08-20T09:50:14.363Z,64.00
2018-08-20T09:52:43.089Z,63.10
2018-08-20T09:55:11.513Z,61.30
2018-08-20T09:57:40.313Z,60.10
2018-08-20T10:00:13.446Z,59.10
2018-08-20T10:02:41.812Z,59.40
2018-08-20T10:05:10.204Z,58.90
2018-08-20T10:07:38.628Z,59.30
2018-08-20T10:10:07.196Z,59.60
2018-08-20T10:12:35.778Z,58.70
2018-08-20T10:15:04.479Z,58.00
2018-08-20T10:17:32.904Z,56.60
2018-08-20T10:20:01.402Z,56.80
2018-08-20T10:22:29.803Z,56.30
2018-08-20T10:24:58.403Z,55.90
2018-08-20T10:27:26.793Z,55.90
2018-08-20T10:29:55.264Z,55.90
2018-08-20T10:32:23.882Z,56.20
2018-08-20T10:34:52.324Z,55.60
2018-08-20T10:37:20.769Z,56.10
2018-08-20T10:39:49.209Z,56.90
2018-08-20T10:42:17.858Z,57.40
2018-08-20T10:44:51.444Z,58.10
2018-08-20T10:47:20.024Z,59.10
2018-08-20T10:49:48.415Z,59.60
2018-08-20T10:52:16.913Z,61.20
2018-08-20T10:54:45.283Z,61.90
2018-08-20T10:57:13.697Z,62.00
2018-08-20T10:59:42.228Z,62.30
2018-08-20T11:02:11.693Z,61.70
2018-08-20T11:04:40.088Z,61.70
2018-08-20T11:07:08.599Z,60.90
2018-08-20T11:09:36.936Z,59.90
2018-08-20T11:12:05.425Z,58.00
2018-08-20T11:14:33.829Z,56.50
2018-08-20T11:17:02.274Z,55.60
2018-08-20T11:19:30.683Z,56.10
2018-08-20T11:21:59.200Z,56.00
2018-08-20T11:24:27.614Z,56.40
2018-08-20T11:26:55.997Z,54.90
2018-08-20T11:29:24.396Z,54.40
2018-08-20T11:31:52.830Z,54.70
2018-08-20T11:34:21.261Z,54.00
2018-08-20T11:36:50.740Z,51.60
2018-08-20T11:39:19.112Z,49.20
2018-08-20T11:41:47.506Z,47.60
2018-08-20T11:44:15.985Z,48.40
2018-08-20T11:46:44.468Z,45.30
2018-08-20T11:49:12.876Z,45.30
2018-08-20T11:51:41.261Z,45.50
2018-08-20T11:54:09.706Z,46.50
2018-08-20T11:56:38.133Z,47.60
2018-08-20T11:59:06.590Z,48.80
2018-08-20T12:01:34.902Z,47.90
2018-08-20T12:04:03.351Z,45.40
2018-08-20T12:06:31.722Z,41.20
2018-08-20T12:09:00.145Z,39.30
2018-08-20T12:11:29.431Z,39.00
2018-08-20T12:13:57.834Z,40.10
2018-08-20T12:16:26.228Z,41.70
2018-08-20T12:18:54.660Z,42.90
2018-08-20T12:21:23.109Z,41.50
2018-08-20T12:23:51.525Z,39.90
2018-08-20T12:26:19.933Z,40.00
2018-08-20T12:28:48.313Z,37.30
2018-08-20T12:31:16.793Z,37.00
2018-08-20T12:33:45.199Z,38.50
2018-08-20T12:36:13.572Z,39.80
2018-08-20T12:38:41.943Z,42.40
2018-08-20T12:41:10.419Z,44.50
2018-08-20T12:43:38.823Z,46.70
2018-08-20T12:46:07.223Z,47.80
2018-08-20T12:48:35.625Z,48.00
2018-08-20T12:51:04.241Z,49.20
2018-08-20T12:53:32.624Z,48.90
2018-08-20T12:56:01.077Z,50.10
2018-08-20T12:58:29.505Z,50.60
2018-08-20T13:00:57.981Z,51.60
2018-08-20T13:03:26.539Z,52.20
2018-08-20T13:05:54.931Z,52.30
2018-08-20T13:08:23.435Z,53.00
2018-08-20T13:10:51.869Z,53.30
2018-08-20T13:13:20.324Z,53.50
2018-08-20T13:15:48.799Z,53.80
2018-08-20T13:18:17.252Z,53.40
2018-08-20T13:20:45.667Z,53.60
2018-08-20T13:23:14.021Z,52.80
2018-08-20T13:25:42.441Z,52.70
2018-08-20T13:28:10.832Z,52.10
2018-08-20T13:30:39.345Z,51.50
2018-08-20T13:33:07.822Z,51.60
2018-08-20T13:35:36.251Z,51.20
2018-08-20T13:38:05.670Z,51.30
2018-08-20T13:40:34.108Z,51.20
2018-08-20T13:43:02.545Z,50.20
2018-08-20T13:45:31.081Z,47.30
2018-08-20T13:47:59.613Z,47.50
2018-08-20T13:50:28.037Z,46.50
2018-08-20T13:52:56.485Z,45.40
2018-08-20T13:55:24.853Z,42.20
2018-08-20T13:57:53.212Z,40.80
2018-08-20T14:00:22.000Z,38.80
2018-08-20T14:02:50.491Z,36.20
2018-08-20T14:05:18.989Z,36.60
2018-08-20T14:07:47.964Z,37.50
2018-08-20T14:10:16.430Z,38.30
2018-08-20T14:12:45.518Z,39.90
2018-08-20T14:15:14.521Z,39.20
2018-08-20T14:17:43.636Z,40.20
2018-08-20T14:20:13.778Z,41.20
2018-08-20T14:22:43.200Z,42.80
2018-08-20T14:25:11.806Z,45.60
2018-08-20T14:27:40.447Z,47.00
2018-08-20T14:30:10.793Z,48.00
2018-08-20T14:32:39.188Z,49.20
2018-08-20T14:35:08.308Z,49.50
2018-08-20T14:37:36.829Z,50.00
2018-08-20T14:40:08.896Z,49.50
2018-08-20T14:42:37.274Z,49.40
2018-08-20T14:45:09.004Z,49.10
2018-08-20T14:47:37.816Z,49.30
2018-08-20T14:50:08.526Z,49.60
2018-08-20T14:52:37.071Z,49.80
2018-08-20T14:55:05.740Z,50.00
2018-08-20T14:57:36.913Z,49.30
2018-08-20T15:00:07.405Z,49.40
2018-08-20T15:02:35.902Z,49.10
2018-08-20T15:05:04.532Z,49.10
2018-08-20T15:07:33.106Z,49.40
2018-08-20T15:10:01.481Z,49.70
2018-08-20T15:12:29.862Z,49.60
2018-08-20T15:14:58.322Z,49.50
2018-08-20T15:17:26.671Z,49.30
2018-08-20T15:19:55.015Z,49.40
2018-08-20T15:22:23.428Z,50.50
2018-08-20T15:24:51.811Z,51.80
2018-08-20T15:27:20.321Z,52.00
2018-08-20T15:29:48.758Z,51.90
2018-08-20T15:32:17.140Z,52.50
2018-08-20T15:34:45.601Z,53.10
2018-08-20T15:37:14.051Z,53.40
2018-08-20T15:39:42.521Z,53.80
2018-08-20T15:42:10.865Z,53.70
2018-08-20T15:44:39.780Z,54.10
2018-08-20T15:47:08.341Z,53.50
2018-08-20T15:49:36.781Z,53.90
2018-08-20T15:52:05.324Z,53.80
2018-08-20T15:54:33.674Z,54.00
2018-08-20T15:57:02.084Z,53.50
2018-08-20T15:59:30.481Z,53.30
2018-08-20T16:01:58.930Z,52.70
2018-08-20T16:04:27.382Z,52.10
2018-08-20T16:06:55.997Z,52.60
2018-08-20T16:09:24.471Z,52.90
2018-08-20T16:11:52.972Z,54.00
2018-08-20T16:14:21.343Z,53.90
2018-08-20T16:16:49.857Z,54.60
2018-08-20T16:19:18.338Z,54.70
2018-08-20T16:21:46.816Z,54.60
2018-08-20T16:24:15.278Z,55.30
2018-08-20T16:26:43.840Z,55.00
2018-08-20T16:29:12.294Z,55.10
2018-08-20T16:31:40.795Z,55.60
2018-08-20T16:34:09.254Z,57.00
2018-08-20T16:36:37.715Z,57.70
2018-08-20T16:39:09.204Z,58.60
2018-08-20T16:41:38.133Z,58.70
2018-08-20T16:44:07.219Z,59.40
2018-08-20T16:46:35.643Z,59.50
2018-08-20T16:49:04.055Z,59.70
2018-08-20T16:51:32.484Z,59.90
2018-08-20T16:54:00.944Z,60.10
2018-08-20T16:56:29.386Z,60.10
2018-08-20T16:58:57.858Z,60.20
2018-08-20T17:01:26.331Z,59.70
2018-08-20T17:03:54.802Z,59.90
2018-08-20T17:06:23.232Z,60.00
2018-08-20T17:08:51.628Z,59.40
2018-08-20T17:11:20.009Z,59.80
2018-08-20T17:13:48.407Z,60.00
2018-08-20T17:16:16.828Z,60.20
2018-08-20T17:18:45.236Z,60.70
2018-08-20T17:21:14.625Z,60.60
2018-08-20T17:23:43.058Z,60.70
2018-08-20T17:26:11.496Z,60.80
2018-08-20T17:28:39.938Z,61.20
2018-08-20T17:31:12.619Z,61.30
2018-08-20T17:33:40.996Z,61.80
2018-08-20T17:36:09.479Z,62.00
2018-08-20T17:38:41.772Z,62.30
2018-08-20T17:41:10.168Z,62.50
2018-08-20T17:43:41.460Z,62.70
2018-08-20T17:46:09.903Z,63.10
2018-08-20T17:48:40.438Z,63.40
2018-08-20T17:51:08.967Z,63.90
2018-08-20T17:53:49.900Z,65.70
2018-08-20T17:56:18.378Z,67.00
2018-08-20T17:58:46.930Z,68.40
2018-08-20T18:01:15.380Z,68.90
2018-08-20T18:03:44.606Z,69.50
2018-08-20T18:06:12.992Z,69.90
2018-08-20T18:08:41.459Z,70.50
2018-08-20T18:11:09.846Z,70.90
2018-08-20T18:13:43.802Z,71.20
2018-08-20T18:16:13.496Z,71.50
2018-08-20T18:18:43.543Z,71.90
2018-08-20T18:21:12.010Z,71.90
2018-08-20T18:23:41.380Z,72.10
2018-08-20T18:26:09.863Z,72.20
2018-08-20T18:28:45.276Z,72.30
2018-08-20T18:31:16.299Z,72.20
2018-08-20T18:33:44.824Z,72.40
2018-08-20T18:36:17.748Z,72.50
2018-08-20T18:38:52.032Z,72.60
2018-08-20T18:41:22.136Z,72.70
2018-08-20T18:43:50.968Z,73.00
2018-08-20T18:46:19.479Z,73.00
2018-08-20T18:48:47.960Z,73.10
2018-08-20T18:51:16.837Z,73.30
2018-08-20T18:53:45.397Z,73.40
2018-08-20T18:56:16.620Z,73.60
2018-08-20T18:58:45.360Z,73.80
2018-08-20T19:01:14.360Z,73.90
2018-08-20T19:03:47.381Z,73.90
2018-08-20T19:06:16.641Z,74.10
2018-08-20T19:08:45.215Z,74.30
2018-08-20T19:11:13.967Z,74.80
2018-08-20T19:13:43.338Z,75.10
2018-08-20T19:16:37.072Z,75.40
2018-08-20T19:19:06.800Z,75.70
2018-08-20T19:21:40.711Z,75.60
2018-08-20T19:24:09.876Z,75.50
2018-08-20T19:26:38.473Z,75.10
2018-08-20T19:29:18.230Z,75.30
2018-08-20T19:31:46.749Z,75.10
2018-08-20T19:34:15.317Z,74.90
2018-08-20T19:36:43.816Z,74.70
2018-08-20T19:39:12.313Z,74.10
2018-08-20T19:41:40.878Z,73.90
2018-08-20T19:44:15.868Z,73.80
2018-08-20T19:46:44.324Z,73.80
2018-08-20T19:49:14.217Z,73.60
2018-08-20T19:51:43.939Z,73.60
2018-08-20T19:54:14.780Z,73.60
2018-08-20T19:56:46.348Z,73.50
2018-08-20T19:59:30.499Z,73.70
2018-08-20T20:02:02.637Z,73.60
2018-08-20T20:04:34.434Z,73.60
2018-08-20T20:07:03.868Z,73.40
2018-08-20T20:09:35.304Z,73.20
2018-08-20T20:12:03.824Z,73.00
2018-08-20T20:14:37.521Z,73.00
2018-08-20T20:17:06.084Z,72.90
2018-08-20T20:19:34.577Z,73.10
2018-08-20T20:22:03.260Z,73.10
2018-08-20T20:24:31.771Z,73.10
2018-08-20T20:27:00.391Z,72.60
2018-08-20T20:29:28.866Z,72.90
2018-08-20T20:31:57.376Z,72.90
2018-08-20T20:34:26.832Z,72.60
2018-08-20T20:36:56.168Z,72.80
2018-08-20T20:39:25.148Z,73.10
2018-08-20T20:41:54.059Z,72.90
2018-08-20T20:44:23.491Z,73.00
2018-08-20T20:46:53.053Z,73.10
2018-08-20T20:49:21.623Z,73.30
2018-08-20T20:51:50.268Z,73.50
2018-08-20T20:54:18.828Z,73.70
2018-08-20T20:56:47.224Z,73.70
2018-08-20T20:59:15.686Z,73.90
2018-08-20T21:01:44.668Z,74.10
2018-08-20T21:04:13.124Z,74.40
2018-08-20T21:06:42.575Z,74.70
2018-08-20T21:09:12.985Z,74.80
2018-08-20T21:11:41.564Z,75.10
2018-08-20T21:14:10.118Z,75.30
2018-08-20T21:16:38.511Z,75.50
2018-08-20T21:19:06.975Z,75.80
2018-08-20T21:21:35.419Z,75.90
2018-08-20T21:24:06.665Z,76.20
2018-08-20T21:26:35.137Z,76.50
2018-08-20T21:29:03.641Z,76.80
2018-08-20T21:31:37.356Z,77.10
2018-08-20T21:34:05.888Z,77.30
2018-08-20T21:36:34.306Z,77.60
2018-08-20T21:39:02.760Z,77.80
2018-08-20T21:41:31.244Z,77.90
2018-08-20T21:43:59.608Z,77.90
2018-08-20T21:46:28.103Z,77.90
2018-08-20T21:48:56.610Z,78.00
2018-08-20T21:51:26.689Z,78.10
2018-08-20T21:53:55.062Z,78.50
2018-08-20T21:56:23.527Z,78.60
2018-08-20T21:58:51.951Z,78.60
2018-08-20T22:01:20.467Z,78.60
2018-08-20T22:03:48.904Z,78.70
2018-08-20T22:06:17.779Z,78.80
2018-08-20T22:08:46.216Z,78.90
2018-08-20T22:11:14.688Z,78.90
2018-08-20T22:13:43.075Z,79.10
2018-08-20T22:16:25.093Z,79.20
2018-08-20T22:18:55.238Z,79.10
2018-08-20T22:21:23.980Z,79.20
2018-08-20T22:23:55.652Z,79.30
2018-08-20T22:26:24.113Z,79.30
2018-08-20T22:28:54.921Z,79.40
2018-08-20T22:31:23.303Z,79.50
2018-08-20T22:33:57.757Z,79.40
2018-08-20T22:36:27.082Z,79.50
2018-08-20T22:38:56.720Z,79.50
2018-08-20T22:41:26.312Z,79.50
2018-08-20T22:43:54.653Z,79.70
2018-08-20T22:46:23.706Z,79.90
2018-08-20T22:48:54.981Z,79.90
2018-08-20T22:51:24.940Z,80.00
2018-08-20T22:53:54.777Z,80.40
2018-08-20T22:56:24.894Z,80.40
2018-08-20T22:58:58.195Z,80.60
2018-08-20T23:01:27.053Z,80.90
2018-08-20T23:03:55.508Z,80.90
2018-08-20T23:06:24.117Z,81.00
2018-08-20T23:08:52.708Z,81.40
2018-08-20T23:11:38.349Z,81.50
2018-08-20T23:14:08.523Z,81.80
2018-08-20T23:16:37.307Z,81.60
2018-08-20T23:19:05.748Z,81.40
2018-08-20T23:21:39.629Z,81.80
2018-08-20T23:24:10.774Z,81.60
2018-08-20T23:26:39.301Z,81.40
2018-08-20T23:29:07.839Z,81.50
2018-08-20T23:31:36.381Z,81.60
2018-08-20T23:34:08.090Z,81.50
2018-08-20T23:36:36.618Z,81.70
2018-08-20T23:39:09.715Z,81.70
2018-08-20T23:41:38.253Z,81.90
2018-08-20T23:44:06.696Z,82.10
2018-08-20T23:46:43.136Z,82.00
2018-08-20T23:49:11.676Z,81.90
2018-08-20T23:51:40.117Z,82.00
2018-08-20T23:54:09.409Z,81.80
2018-08-20T23:56:37.820Z,81.20
2018-08-20T23:59:06.275Z,81.20
